Latest Observation

65 Stations

10 Minute Data | America/Los_Angeles
as of 10/7/22 6:02 AM PDT
Station Date Time Temp (°F) RH (%) Dew Pt (°F) Wind Spd (mph) Wind Dir (°) Wind Gust (mph) Wind Gst Dir (°) Latest Rain (In) Soil Moist (%) Soil Temp (°F) Daily Rain (In) Daily Min Temp (°F) Daily Max Temp (°F) Daily Max Wind (mph)
Hobart Mills 10/7/22 0600 35.6   0.5 64   7 24.5   2.8 0.0   0.0 N | 0 0.0   0.0 WNW | 286 0.00 14.0   0.0 58.6   0.1 0.00 35.2   0.2 42.2   1.7 3.8   0.4
Prosser Dam 10/7/22 0600 30.5   1.8 79   11 24.8   5.0 0.1   0.1 S | 185 0.9   0.9 S | 184 0.00 5.8   0.0 55.4   0.3 0.00 30.0   2.1 40.7   0.6 4.1   0.2
West Incline Village 10/7/22 0600 54.3   1.3 35   4 27.0   1.4 0.0   0.0 N | 0 0.0   0.0 NNE | 25 0.00 11.2   0.0 53.6   0.1 0.00 53.0   0.0 57.8   0.1 0.0   0.0
Incline Village (Fairview Blvd) 10/7/22 0600 52.8   0.5 54   10 36.7   4.6 0.0   0.0 N | 0 0.0   0.0 ENE | 66 0.00 12.4   0.4 65.0   0.2 0.00 52.6   0.4 57.5   1.2 0.0   5.2
Incline Village (Diamond Peak) 10/7/22 0600 55.7   0.4 27   3 22.2   2.1 0.0   1.7 N | 0 0.0   2.7 WSW | 240 0.00 - - 0.00 53.6   1.3 59.4   1.2 4.8   3.8
Incline Village (Mill Creek) 10/7/22 0600 51.8   0.6 48   3 32.9   1.2 0.6   0.5 E | 88 1.5   0.0 E | 99 0.00 2.8   0.0 55.4   0.0 0.00 51.3   0.7 55.1   2.1 2.6   0.0
Incline Village (Lakeshore Blvd) 10/7/22 0600 41.9   1.1 65   2 31.0   0.3 0.2   0.2 ENE | 64 2.6   2.0 E | 82 0.00 - - 0.00 41.8   0.9 45.7   1.5 3.2   0.1
Glenbrook 10/7/22 0600 46.0   1.2 57   10 31.8   3.4 0.3   0.0 SE | 124 1.4   0.1 SE | 128 0.00 35.6   0.5 53.4   0.1 0.00 45.7   0.6 50.4   0.6 3.1   0.4
Zephyr Cove 10/7/22 0600 49.3   1.1 64   17 37.6   6.8 0.0   0.0 N | 0 0.0   0.0 NNE | 26 0.00 6.0   0.2 63.0   0.1 0.00 48.5   1.5 54.6   0.4 0.9   0.1
Kingsbury Grade 10/7/22 0600 45.6   2.2 49   10 27.6   3.5 0.5   0.8 NNE | 13 2.6   1.1 N | 7 0.00 2.7   0.0 66.3   0.1 0.00 45.2   1.3 50.5   0.1 4.8   0.0
South Daggett Pass (Ridge) 10/7/22 0600 53.8   1.9 37   9 28.4   4.9 0.6   1.1 W | 264 3.0   0.0 W | 266 0.00 2.6   0.1 59.7   0.2 0.00 53.7   1.7 58.2   1.1 3.7   2.4
Palomino Valley 10/7/22 0600 44.4   1.5 40   3 21.6   0.3 0.6   0.1 SSE | 149 1.6   1.4 SSE | 150 0.00 3.9   0.0 66.0   0.0 0.00 42.6   1.8 53.5   2.8 4.1   0.0
East Cold Springs 10/7/22 0600 57.9   0.4 27   2 24.4   1.0 6.0   4.1 W | 264 9.2   6.0 W | 268 0.00 1.5   0.0 61.4   0.3 0.00 53.8   1.3 60.0   3.1 10.4   4.2
Peavine 10/7/22 0600 53.8   2.5 33   3 25.3   0.0 6.7   1.0 SW | 214 8.1   3.2 SSW | 206 0.00 9.0   0.0 56.8   0.1 0.00 53.2   2.6 56.8   3.4 8.9   4.4
West Verdi Peak 10/7/22 0600 52.8   1.8 33   1 24.3   0.5 0.9   0.2 NNW | 332 2.1   0.7 NNW | 346 0.00 5.0   0.0 60.8   0.2 0.00 52.5   0.0 57.8   0.4 4.0   1.2
West Verdi 10/7/22 0600 47.6   1.4 45   7 27.2   2.5 0.6   0.6 NNW | 332 2.1   2.1 NW | 320 0.00 16.3   0.0 70.4   0.0 0.00 47.4   1.5 56.0   2.6 5.8   0.6
South Verdi 9/23/22 0800 47.9   7.9 65   20 36.8   0.8 6.1   1.4 SSW | 203 8.7   0.8 SW | 214 0.00 15.5   0.1 57.2   1.7 0.00 45.0   6.4 51.6   4.3 8.7   4.0
Northwest Reno 10/7/22 0600 57.5   0.6 28   1 24.7   1.4 5.3   3.6 NNE | 22 6.3   3.7 NNE | 21 0.00 22.3   0.0 71.2   0.3 0.00 57.2   0.6 66.0   3.2 6.8   1.0
North Lawton 10/7/22 0600 53.8   2.3 33   9 25.4   3.6 7.1   0.5 W | 274 10.7   1.1 W | 278 0.00 35.7   0.0 65.8   0.1 0.00 51.7   1.8 61.8   3.2 14.8   3.0
West Reno (Mogul) 10/7/22 0600 50.6   1.2 40   6 27.2   2.6 4.2   0.2 SW | 223 7.6   1.2 SW | 224 0.00 22.6   0.0 71.0   0.0 0.00 50.0   1.3 59.5   3.7 10.1   0.1
Caughlin (Hunter Lake Trail) 10/7/22 0600 58.1   0.1 28   2 25.0   1.3 0.0   0.0 N | 0 0.0   0.0 SSE | 148 0.00 14.9   0.0 68.4   0.2 0.00 57.2   0.8 64.6   0.8 0.0   0.0
ArrowCreek 10/7/22 0600 52.3   0.7 36   3 26.3   1.1 3.3   2.0 S | 178 6.1   1.7 S | 177 0.00 10.9   0.0 62.0   0.0 0.00 51.8   0.6 62.3   2.9 8.4   1.7
Tracy 10/7/22 0600 49.6   0.6 41   3 27.1   2.4 0.3   0.4 ESE | 105 1.9   0.1 E | 94 0.00 6.5   0.0 72.2   0.1 0.00 49.2   0.5 58.4   0.5 5.0   0.6
Virginia Highlands 10/7/22 0600 59.3   1.1 26   1 24.8   0.2 0.0   0.0 N | 0 0.0   0.0 W | 277 0.00 6.8   0.0 67.9   0.1 0.00 57.9   0.1 65.1   0.6 6.2   1.7
Virginia City 10/7/22 0600 60.5   0.2 22   2 21.3   1.9 1.7   1.0 WNW | 296 4.5   2.0 WNW | 284 0.00 3.6   0.1 64.1   0.4 0.00 59.8   0.0 63.0   0.4 6.1   0.4
Six Mile Canyon 10/7/22 0600 53.7   0.7 35   2 26.7   2.4 2.1   0.2 N | 2 4.1   0.1 NNE | 18 0.00 8.7   0.1 66.2   0.3 0.00 53.2   2.4 59.1   0.8 5.0   0.4
Mt Rose Highway 10/7/22 0600 55.4   3.0 28   5 23.0   1.1 3.7   0.4 SW | 226 6.5   1.4 SW | 231 0.00 6.8   0.0 55.9   0.1 0.00 54.6   2.5 56.4   1.3 9.7   1.9
Pleasant Valley 10/7/22 0600 48.0   0.7 47   1 28.9   1.2 2.5   0.5 W | 265 4.0   0.2 W | 266 0.00 2.6   0.0 69.9   0.0 0.00 47.5   0.5 55.0   0.2 6.3   1.2
New Washoe City 10/7/22 0600 49.5   0.6 36   1 24.0   0.3 4.5   0.4 NE | 34 7.8   1.2 NE | 34 0.00 3.1   0.0 68.0   0.0 0.00 49.4   0.2 55.3   0.3 8.9   0.7
Franktown Creek 10/7/22 0600 45.4   2.2 52   7 28.7   0.9 0.0   0.0 N | 0 0.0   0.0 WSW | 244 0.00 3.6   0.0 62.5   0.1 0.00 45.2   2.6 51.8   0.6 3.0   0.4
Musgrove Creek 10/7/22 0600 57.8   1.2 30   0 26.2   1.3 0.8   0.7 SW | 217 1.9   0.5 SSW | 210 0.00 10.3   0.1 57.4   0.1 0.00 57.2   0.7 61.6   0.7 3.4   0.6
East Carson 10/7/22 0600 46.7   1.5 49   2 28.6   2.4 0.6   0.2 SE | 146 2.1   1.0 SE | 129 0.00 1.4   0.0 68.0   0.0 0.00 46.2   1.2 56.6   0.6 2.6   0.2
Kings Canyon 10/7/22 0600 50.8   0.5 38   2 26.3   1.7 3.9   0.6 SSW | 201 5.1   0.0 SSW | 196 0.00 2.9   0.0 65.8   0.2 0.00 49.3   1.5 57.5   0.8 6.3   0.1
Carson City (Voltaire Canyon) 10/7/22 0600 56.8   0.0 34   3 28.8   2.7 7.1   1.3 SSW | 204 11.2   0.7 SSW | 202 0.00 2.1   0.0 72.6   0.1 0.00 56.4   0.0 65.2   0.5 12.0   0.1
Jacks Valley 10/7/22 0600 51.4   1.3 39   2 27.3   2.7 3.2   3.2 NNE | 17 4.7   4.3 NNE | 21 0.00 6.7   0.0 71.1   0.3 0.00 50.6   1.3 58.8   0.8 5.1   0.5
Genoa 10/7/22 0600 49.3   0.3 45   4 28.8   1.9 0.0   0.3 N | 0 0.0   1.4 NNW | 334 0.00 4.3   0.1 63.5   0.1 0.00 48.8   1.2 56.7   0.7 2.1   0.2
South Genoa (Walleys Hot Springs) 10/7/22 0600 40.5   2.3 70   14 31.7   2.2 1.2   1.2 NNW | 339 2.6   2.6 NNW | 327 0.00 4.2   0.5 66.0   0.1 0.00 37.5   0.2 52.1   0.9 3.7   1.1
SW Gardnerville (HWY 88) 10/7/22 0600 42.2   1.6 62   2 30.2   0.7 1.0   1.0 ENE | 73 2.7   2.7 ESE | 107 0.00 2.0   0.0 61.6   0.0 0.00 41.6   2.6 52.4   3.2 5.2   0.5
Sheridan 10/5/22 2150 60.9   1.5 26   2 25.9   2.7 1.3   0.6 S | 178 2.7   0.4 S | 180 0.00 3.1   0.0 70.4   0.0 0.00 45.2   4.5 79.2   0.3 10.8   1.1
Ruhenstroth 10/7/22 0600 48.3   0.9 44   3 27.2   2.7 0.3   0.3 ENE | 75 1.4   1.9 E | 79 0.00 7.7   0.0 69.1   0.0 0.00 45.9   0.2 54.4   2.1 6.8   2.2
Double Spring 10/7/22 0600 41.8   0.5 49   2 24.0   1.5 0.0   0.3 N | 0 0.0   1.1 SW | 227 0.00 35.4   0.0 67.8   0.3 0.00 41.4   2.5 49.1   1.4 4.7   2.5
North Topaz Lake 10/7/22 0600 57.5   0.2 31   1 27.2   0.6 0.5   0.4 NNW | 335 2.6   1.0 N | 354 0.00 - - 0.00 57.0   0.4 64.0   1.2 5.3   1.5
Wild Oat Mountain 10/7/22 0600 58.1   1.6 28   1 25.5   0.8 1.4   1.1 NE | 39 1.9   1.7 NE | 48 0.00 17.6   0.2 67.9   0.2 0.00 57.9   2.1 63.4   1.4 6.2   1.5
Smith Valley 10/7/22 0600 49.4   0.7 40   3 26.0   1.4 1.3   1.3 NNW | 328 4.1   4.1 NW | 314 0.00 3.0   0.0 68.7   0.1 0.00 47.9   0.4 60.4   2.7 7.2   1.2
Pine Grove Mountain 10/7/22 0600 56.2   1.8 23   1 18.4   0.5 3.9   2.0 N | 9 5.0   1.5 N | 0 0.00 2.4   0.0 55.2   0.5 0.00 54.9   0.7 56.7   0.8 8.3   3.0
Paradise Hill 10/7/22 0600 49.6   3.8 33   8 22.0   1.7 2.0   0.8 WNW | 290 3.7   1.6 N | 353 0.00 6.9   0.1 64.0   0.3 0.00 43.6   0.0 58.5   2.7 5.6   1.0
Winnemucca 10/7/22 0600 49.7   3.7 33   11 21.7   3.7 3.5   1.0 NNE | 28 4.6   2.4 NNE | 17 0.00 5.0   0.0 66.6   0.1 0.00 48.0   5.0 61.1   0.1 7.6   0.5
NE Elko 10/7/22 0600 33.3   1.7 47   13 15.4   7.1 1.5   1.1 ESE | 113 3.0   1.1 E | 90 0.00 4.1   0.1 61.6   0.4 0.00 33.2   0.6 43.5   4.6 5.7   2.1
North Elko 10/7/22 0600 50.2   0.9 36   6 24.1   3.2 2.1   1.7 NNW | 338 2.9   1.4 NNW | 329 0.00 14.6   0.0 62.2   0.3 0.00 48.0   0.7 57.3   3.6 4.3   5.3
South Elko 10/7/22 0600 51.8   3.1 39   2 27.8   1.5 0.0   2.2 N | 0 0.0   3.6 NE | 50 0.00 5.9   0.0 57.0   0.2 0.00 51.3   0.2 60.4   2.0 14.9   4.2
Lamoille 10/7/22 0600 50.1   3.8 36   11 24.4   2.7 3.4   0.8 SSE | 167 5.6   0.2 S | 171 0.00 8.6   0.4 58.8   0.1 0.00 45.7   2.0 54.6   1.5 7.1   0.6
Reid Gardner Sub 10/7/22 0600 61.4   1.4 39   2 36.3   0.1 3.4   0.6 WNW | 287 4.3   0.7 WNW | 284 0.00 - 78.4   0.4 0.00 56.8   1.4 66.6   0.8 4.8   3.2
Corn Creek 10/7/22 0600 69.7   3.6 29   1 35.7   3.6 1.0   2.1 N | 11 3.6   2.5 NNE | 19 0.00 2.9   0.1 78.0   0.2 0.00 66.6   1.2 75.0   0.5 10.3   0.4
Lucky Strike 10/7/22 0600 63.5   2.2 36   10 36.2   5.9 5.0   1.0 SSW | 205 7.7   2.2 SSW | 201 0.00 3.0   0.0 66.8   0.6 0.00 62.2   2.5 68.8   0.5 10.8   1.4
Lower Angel Peak 10/7/22 0600 52.7   0.6 50   11 34.4   6.6 4.9   0.7 SW | 220 7.1   1.1 SSW | 198 0.00 2.5   0.1 63.6   0.2 0.00 51.3   0.6 55.1   1.8 7.5   1.9
Angel Peak 10/7/22 0600 50.2   2.0 47   13 30.9   6.2 5.6   2.1 E | 82 8.4   3.2 E | 86 0.00 - 32.0   0.0 0.00 50.0   1.6 51.7   2.0 13.4   2.2
Upper Kyle Canyon 10/7/22 0600 48.1   0.7 53   10 31.8   4.6 3.3   0.2 NNW | 330 5.7   0.0 NNW | 336 0.00 13.4   0.1 61.3   0.2 0.00 47.4   0.6 52.9   0.9 8.4   0.4
Mt Charleston 10/7/22 0600 50.1   2.4 51   13 32.6   4.8 0.5   3.7 WSW | 254 3.5   3.7 WNW | 284 0.00 0.0   0.0 40.5   1.8 0.00 49.8   1.7 53.7   1.2 9.1   0.6
Mid Kyle Canyon 10/7/22 0600 54.0   0.6 46   9 33.5   4.7 10.3   1.1 WNW | 287 14.5   1.1 W | 280 0.00 3.8   0.0 66.0   0.3 0.00 52.6   1.6 56.0   1.3 17.9   0.1
Blue Diamond 10/7/22 0600 58.1   2.7 41   0 34.8   2.4 0.9   2.0 W | 264 2.7   1.1 W | 268 0.00 0.7   0.0 79.2   0.5 0.00 57.5   2.7 62.4   0.2 4.6   3.2
Artesian Sub 10/7/22 0600 70.2   1.6 33   3 39.7   1.0 0.2   0.1 E | 86 1.5   0.5 E | 85 0.00 9.3   0.0 86.4   0.5 0.00 69.7   2.1 75.0   1.4 3.8   0.2
North Henderson 10/7/22 0600 69.1   1.2 39   0 43.5   0.9 0.0   0.0 N | 0 0.0   0.0 NW | 316 0.00 - - 0.00 68.6   0.9 75.7   0.0 4.0   4.1
Sandy Valley 10/7/22 0600 71.0   1.6 24   1 32.8   0.8 4.1   0.7 N | 10 7.7   0.5 NNE | 24 0.00 9.1   0.0 77.0   0.9 0.00 62.9   0.9 77.9   1.8 10.3   3.1
Searchlight 10/7/22 0600 62.6   8.1 49   23 43.4   8.9 4.3   5.7 NNW | 339 5.1   7.3 NNW | 340 0.00 3.8   0.0 76.1   0.4 0.00 60.8   0.8 69.7   3.0 8.8   5.3
Laughlin 10/7/22 0600 80.1   3.8 35   6 49.8   8.1 2.5   1.2 NNE | 16 4.7   2.4 NW | 314 0.00 4.0   0.0 91.7   0.1 0.00 77.8   1.8 87.5   1.7 7.8   4.1
Max     80.1 79 49.8 10.3 - 14.5 - 0.00 35.7 91.7 0.00 77.8 87.5 17.9
Avg     52.7 41 28.7 2.2 - 3.7 - 0.00 8.3 65.0 - - - -
Min     30.5 22 15.4 0.0 - 0.0 - 0.00 0.0 32.0 0.00 30.0 40.7 0.0